createdAt,value
2023-02-25T00:01:34.324Z,9.35
2023-02-25T00:04:03.879Z,9.34
2023-02-25T00:06:31.574Z,9.30
2023-02-25T00:08:59.682Z,9.26
2023-02-25T00:11:28.300Z,9.26
2023-02-25T00:13:56.353Z,9.24
2023-02-25T00:16:26.125Z,9.21
2023-02-25T00:18:56.968Z,9.20
2023-02-25T00:21:29.824Z,9.16
2023-02-25T00:24:04.410Z,9.14
2023-02-25T00:26:42.451Z,9.14
2023-02-25T00:29:10.197Z,9.15
2023-02-25T00:31:38.064Z,9.13
2023-02-25T00:34:05.875Z,9.13
2023-02-25T00:36:34.945Z,9.15
2023-02-25T00:39:02.633Z,9.13
2023-02-25T00:41:31.737Z,9.14
2023-02-25T00:44:01.364Z,9.13
2023-02-25T00:46:30.897Z,9.13
2023-02-25T00:48:59.719Z,9.13
2023-02-25T00:51:29.811Z,9.11
2023-02-25T00:53:59.766Z,9.09
2023-02-25T00:56:27.977Z,8.99
2023-02-25T00:58:55.692Z,9.02
2023-02-25T01:01:26.156Z,9.00
2023-02-25T01:03:56.161Z,8.98
2023-02-25T01:06:24.610Z,9.01
2023-02-25T01:11:45.412Z,9.03
2023-02-25T01:14:15.911Z,9.01
2023-02-25T01:16:45.097Z,9.00
2023-02-25T01:19:16.077Z,9.00
2023-02-25T01:21:45.553Z,8.99
2023-02-25T01:24:14.962Z,9.02
2023-02-25T01:26:47.233Z,9.01
2023-02-25T01:29:18.062Z,9.02
2023-02-25T01:31:46.528Z,9.02
2023-02-25T01:34:16.788Z,9.02
2023-02-25T01:36:45.206Z,9.04
2023-02-25T01:39:14.032Z,9.04
2023-02-25T01:41:42.609Z,9.06
2023-02-25T01:44:14.243Z,9.06
2023-02-25T01:46:44.014Z,9.06
2023-02-25T01:49:16.033Z,9.03
2023-02-25T01:51:47.008Z,8.99
2023-02-25T01:54:15.588Z,8.95
2023-02-25T01:56:48.750Z,8.93
2023-02-25T01:59:21.027Z,8.94
2023-02-25T02:01:49.358Z,8.89
2023-02-25T02:04:19.175Z,8.84
2023-02-25T02:06:51.233Z,8.84
2023-02-25T02:09:21.245Z,8.81
2023-02-25T02:11:48.965Z,8.81
2023-02-25T02:14:22.101Z,8.81
2023-02-25T02:17:16.752Z,8.82
2023-02-25T02:20:02.142Z,8.81
2023-02-25T02:22:37.303Z,8.81
2023-02-25T02:25:34.685Z,8.79
2023-02-25T02:28:21.719Z,8.80
2023-02-25T02:31:23.777Z,8.77
2023-02-25T02:34:00.548Z,8.76
2023-02-25T02:36:37.205Z,8.76
2023-02-25T02:39:14.958Z,8.77
2023-02-25T02:41:48.751Z,8.77
2023-02-25T02:44:20.312Z,8.77
2023-02-25T02:46:53.636Z,8.80
2023-02-25T02:49:26.859Z,8.78
2023-02-25T02:51:59.175Z,8.78
2023-02-25T02:54:32.898Z,8.81
2023-02-25T02:57:02.478Z,8.79
2023-02-25T02:59:34.293Z,8.84
2023-02-25T03:02:11.128Z,8.84
2023-02-25T03:04:42.702Z,8.84
2023-02-25T03:07:14.733Z,8.87
2023-02-25T03:09:48.165Z,8.88
2023-02-25T03:12:16.947Z,8.86
2023-02-25T03:14:44.860Z,8.89
2023-02-25T03:17:18.495Z,8.90
2023-02-25T03:19:51.957Z,8.92
2023-02-25T03:22:28.256Z,8.90
2023-02-25T03:25:00.716Z,8.86
2023-02-25T03:27:34.932Z,8.85
2023-02-25T03:30:07.659Z,8.86
2023-02-25T03:32:39.628Z,8.84
2023-02-25T03:35:10.354Z,8.82
2023-02-25T03:37:41.713Z,8.80
2023-02-25T03:40:14.330Z,8.79
2023-02-25T03:42:49.184Z,8.81
2023-02-25T03:45:17.648Z,8.79
2023-02-25T03:47:46.989Z,8.81
2023-02-25T03:50:21.324Z,8.82
2023-02-25T03:52:49.044Z,8.80
2023-02-25T03:55:18.405Z,8.84
2023-02-25T03:57:49.751Z,8.86
2023-02-25T04:00:22.735Z,8.86
2023-02-25T04:02:53.018Z,8.88
2023-02-25T04:05:22.154Z,8.86
2023-02-25T04:07:50.072Z,8.87
2023-02-25T04:10:19.388Z,8.86
2023-02-25T04:12:47.110Z,8.87
2023-02-25T04:15:15.163Z,8.87
2023-02-25T04:17:43.415Z,8.88
2023-02-25T04:20:13.776Z,8.89
2023-02-25T04:22:41.627Z,8.87
2023-02-25T04:25:10.572Z,8.87
2023-02-25T04:27:38.231Z,8.85
2023-02-25T04:30:06.828Z,8.86
2023-02-25T04:32:35.122Z,8.84
2023-02-25T04:35:03.486Z,8.85
2023-02-25T04:37:32.875Z,8.84
2023-02-25T04:40:01.025Z,8.83
2023-02-25T04:42:28.680Z,8.84
2023-02-25T04:44:56.343Z,8.82
2023-02-25T04:47:24.402Z,8.85
2023-02-25T04:49:52.066Z,8.80
2023-02-25T04:52:20.059Z,8.82
2023-02-25T04:54:49.688Z,8.79
2023-02-25T04:57:17.180Z,8.82
2023-02-25T04:59:47.628Z,8.74
2023-02-25T05:02:16.626Z,8.79
2023-02-25T05:04:44.664Z,8.78
2023-02-25T05:07:12.426Z,8.73
2023-02-25T05:09:40.592Z,8.73
2023-02-25T05:12:09.687Z,8.76
2023-02-25T05:14:38.295Z,8.76
2023-02-25T05:17:06.424Z,8.76
2023-02-25T05:19:34.307Z,8.78
2023-02-25T05:22:01.992Z,8.77
2023-02-25T05:24:29.733Z,8.78
2023-02-25T05:26:57.429Z,8.80
2023-02-25T05:29:26.502Z,8.76
2023-02-25T05:31:55.748Z,8.77
2023-02-25T05:34:23.734Z,8.79
2023-02-25T05:36:51.440Z,8.80
2023-02-25T05:39:19.702Z,8.82
2023-02-25T05:41:47.372Z,8.84
2023-02-25T05:44:15.022Z,8.82
2023-02-25T05:46:44.516Z,8.86
2023-02-25T05:49:12.223Z,8.86
2023-02-25T05:51:39.978Z,8.87
2023-02-25T05:54:08.235Z,8.88
2023-02-25T05:56:35.888Z,8.90
2023-02-25T05:59:03.538Z,8.92
2023-02-25T06:01:32.227Z,8.94
2023-02-25T06:04:01.317Z,8.95
2023-02-25T06:06:31.585Z,8.95
2023-02-25T06:09:00.119Z,8.94
2023-02-25T06:11:31.576Z,8.96
2023-02-25T06:14:01.697Z,8.95
2023-02-25T06:16:33.008Z,8.93
2023-02-25T06:19:03.671Z,8.96
2023-02-25T06:21:32.057Z,8.96
2023-02-25T06:23:59.838Z,8.93
2023-02-25T06:26:28.451Z,8.89
2023-02-25T06:28:56.634Z,8.88
2023-02-25T06:31:25.601Z,8.85
2023-02-25T06:33:55.457Z,8.84
2023-02-25T06:36:25.018Z,8.86
2023-02-25T06:38:52.909Z,8.85
2023-02-25T06:41:23.110Z,8.87
2023-02-25T06:43:52.519Z,8.89
2023-02-25T06:46:27.343Z,8.85
2023-02-25T06:48:55.645Z,8.86
2023-02-25T06:51:25.792Z,8.86
2023-02-25T06:53:53.909Z,8.85
2023-02-25T06:56:22.486Z,8.84
2023-02-25T06:58:52.499Z,8.84
2023-02-25T07:01:21.143Z,8.82
2023-02-25T07:03:49.014Z,8.84
2023-02-25T07:06:17.300Z,8.82
2023-02-25T07:08:47.244Z,8.84
2023-02-25T07:11:26.990Z,8.78
2023-02-25T07:13:55.121Z,8.88
2023-02-25T07:16:23.301Z,8.88
2023-02-25T07:18:51.872Z,8.89
2023-02-25T07:21:20.641Z,8.91
2023-02-25T07:23:50.334Z,8.93
2023-02-25T07:26:18.319Z,8.93
2023-02-25T07:28:48.753Z,8.96
2023-02-25T07:31:19.411Z,8.88
2023-02-25T07:33:47.269Z,8.98
2023-02-25T07:36:16.641Z,8.95
2023-02-25T07:38:44.639Z,8.99
2023-02-25T07:41:15.881Z,9.05
2023-02-25T07:43:44.207Z,9.07
2023-02-25T07:46:13.191Z,9.06
2023-02-25T07:48:40.982Z,9.10
2023-02-25T07:51:11.307Z,9.12
2023-02-25T07:53:39.760Z,9.11
2023-02-25T07:56:08.512Z,9.14
2023-02-25T07:58:38.702Z,9.14
2023-02-25T08:01:09.024Z,9.15
2023-02-25T08:03:36.868Z,9.13
2023-02-25T08:06:08.264Z,9.14
2023-02-25T08:08:36.443Z,9.13
2023-02-25T08:11:07.155Z,9.17
2023-02-25T08:13:35.476Z,9.19
2023-02-25T08:16:07.185Z,9.26
2023-02-25T08:18:34.997Z,9.31
2023-02-25T08:21:03.434Z,9.40
2023-02-25T08:23:31.664Z,9.45
2023-02-25T08:25:59.744Z,9.49
2023-02-25T08:28:31.829Z,9.57
2023-02-25T08:31:01.827Z,9.66
2023-02-25T08:33:32.091Z,9.70
2023-02-25T08:36:09.531Z,9.80
2023-02-25T08:38:38.528Z,9.86
2023-02-25T08:41:06.897Z,9.91
2023-02-25T08:43:34.841Z,9.96
2023-02-25T08:46:03.392Z,9.96
2023-02-25T08:48:32.414Z,9.95
2023-02-25T08:51:04.305Z,9.92
2023-02-25T08:53:31.981Z,9.98
2023-02-25T08:56:03.326Z,10.02
2023-02-25T08:58:31.576Z,10.03
2023-02-25T09:00:59.426Z,10.04
2023-02-25T09:03:27.129Z,10.19
2023-02-25T09:05:57.753Z,10.23
2023-02-25T09:08:25.393Z,10.22
2023-02-25T09:10:53.046Z,10.08
2023-02-25T09:13:21.315Z,10.19
2023-02-25T09:15:57.149Z,10.24
2023-02-25T09:18:25.462Z,10.17
2023-02-25T09:20:53.328Z,10.10
2023-02-25T09:23:22.386Z,10.07
2023-02-25T09:25:50.912Z,10.13
2023-02-25T09:28:18.648Z,10.12
2023-02-25T09:30:46.847Z,10.04
2023-02-25T09:33:15.470Z,10.07
2023-02-25T09:35:43.134Z,10.01
2023-02-25T09:38:11.345Z,10.01
2023-02-25T09:40:42.258Z,10.06
2023-02-25T09:43:21.012Z,10.00
2023-02-25T09:45:50.590Z,10.02
2023-02-25T09:48:25.767Z,9.91
2023-02-25T09:50:58.610Z,9.86
2023-02-25T09:53:32.840Z,9.77
2023-02-25T09:56:03.780Z,9.88
2023-02-25T09:58:35.034Z,9.99
2023-02-25T10:01:08.638Z,9.96
2023-02-25T10:03:47.987Z,10.09
2023-02-25T10:06:22.504Z,10.15
2023-02-25T10:09:02.838Z,10.13
2023-02-25T10:11:44.237Z,10.01
2023-02-25T10:14:25.387Z,10.16
2023-02-25T10:17:04.429Z,10.22
2023-02-25T10:19:52.971Z,10.15
2023-02-25T10:22:30.410Z,10.14
2023-02-25T10:25:02.112Z,10.21
2023-02-25T10:27:35.297Z,10.28
2023-02-25T10:30:07.851Z,10.19
2023-02-25T10:32:38.133Z,10.26
2023-02-25T10:35:17.044Z,10.31
2023-02-25T10:37:45.357Z,10.43
2023-02-25T10:40:17.408Z,10.46
2023-02-25T10:42:51.027Z,10.53
2023-02-25T10:45:23.155Z,10.48
2023-02-25T10:47:57.171Z,10.55
2023-02-25T10:50:42.793Z,10.40
2023-02-25T10:53:16.416Z,10.27
2023-02-25T10:55:51.759Z,10.32
2023-02-25T10:58:32.137Z,10.46
2023-02-25T11:01:02.412Z,10.53
2023-02-25T11:03:33.102Z,10.41
2023-02-25T11:06:20.645Z,10.34
2023-02-25T11:08:49.926Z,10.34
2023-02-25T11:11:22.178Z,10.20
2023-02-25T11:14:02.057Z,10.10
2023-02-25T11:16:32.084Z,9.89
2023-02-25T11:19:02.808Z,9.96
2023-02-25T11:21:34.781Z,9.89
2023-02-25T11:24:05.695Z,9.90
2023-02-25T11:26:36.006Z,9.93
2023-02-25T11:29:13.948Z,9.96
2023-02-25T11:32:01.485Z,9.88
2023-02-25T11:34:31.793Z,9.94
2023-02-25T11:37:27.950Z,9.94
2023-02-25T11:39:57.983Z,10.04
2023-02-25T11:42:27.734Z,10.07
2023-02-25T11:45:02.428Z,10.07
2023-02-25T11:47:32.709Z,10.16
2023-02-25T11:50:15.091Z,10.24
2023-02-25T11:52:47.653Z,10.40
2023-02-25T11:55:26.630Z,10.31
2023-02-25T11:58:06.276Z,10.51
2023-02-25T12:00:45.433Z,10.67
2023-02-25T12:03:43.509Z,10.54
2023-02-25T12:06:23.381Z,10.56
2023-02-25T12:09:22.701Z,10.57
2023-02-25T12:12:13.246Z,10.46
2023-02-25T12:15:06.139Z,10.28
2023-02-25T12:18:07.027Z,10.22
2023-02-25T12:20:59.859Z,10.05
2023-02-25T12:24:07.461Z,10.06
2023-02-25T12:26:54.988Z,10.08
2023-02-25T12:29:42.502Z,9.95
2023-02-25T12:32:37.182Z,9.84
2023-02-25T12:35:39.054Z,9.86
2023-02-25T12:38:43.196Z,9.76
2023-02-25T12:41:27.478Z,9.71
2023-02-25T12:44:06.974Z,9.58
2023-02-25T12:46:46.052Z,9.55
2023-02-25T12:49:51.287Z,9.51
2023-02-25T12:52:35.731Z,9.59
2023-02-25T12:55:24.694Z,9.56
2023-02-25T12:58:09.504Z,9.57
2023-02-25T13:01:01.363Z,9.68
2023-02-25T13:03:41.685Z,9.81
2023-02-25T13:06:44.761Z,9.70
2023-02-25T13:09:40.128Z,9.86
2023-02-25T13:12:26.418Z,9.98
2023-02-25T13:15:05.770Z,10.01
2023-02-25T13:17:57.433Z,10.10
2023-02-25T13:21:01.770Z,10.19
2023-02-25T13:23:47.945Z,10.43
2023-02-25T13:26:47.116Z,10.53
2023-02-25T13:29:40.175Z,10.54
2023-02-25T13:32:21.571Z,10.32
2023-02-25T13:35:06.821Z,10.17
2023-02-25T13:37:48.563Z,10.06
2023-02-25T13:40:32.255Z,10.24
2023-02-25T13:43:16.100Z,10.45
2023-02-25T13:45:56.264Z,10.43
2023-02-25T13:48:40.385Z,10.44
2023-02-25T13:51:42.843Z,10.49
2023-02-25T13:54:31.508Z,10.52
2023-02-25T13:57:27.724Z,10.50
2023-02-25T14:00:38.770Z,10.42
2023-02-25T14:03:23.512Z,10.27
2023-02-25T14:06:08.954Z,10.28
2023-02-25T14:08:59.753Z,10.25
2023-02-25T14:11:43.517Z,10.24
2023-02-25T14:14:28.701Z,10.24
2023-02-25T14:17:19.214Z,10.24
2023-02-25T14:20:02.497Z,10.32
2023-02-25T14:22:38.403Z,10.22
2023-02-25T14:25:21.602Z,10.38
2023-02-25T14:27:58.575Z,10.34
2023-02-25T14:30:37.065Z,10.34
2023-02-25T14:33:33.113Z,10.16
2023-02-25T14:36:13.472Z,10.12
2023-02-25T14:39:02.199Z,10.23
2023-02-25T14:41:43.282Z,10.31
2023-02-25T14:44:16.360Z,10.16
2023-02-25T14:46:49.407Z,9.98
2023-02-25T14:49:26.735Z,10.17
2023-02-25T14:52:24.339Z,10.15
2023-02-25T14:55:25.328Z,10.09
2023-02-25T14:58:31.531Z,9.81
2023-02-25T15:01:27.990Z,9.87
2023-02-25T15:04:19.373Z,9.82
2023-02-25T15:07:00.381Z,10.00
2023-02-25T15:10:09.580Z,9.93
2023-02-25T15:13:01.227Z,9.76
2023-02-25T15:15:55.161Z,9.66
2023-02-25T15:18:53.751Z,9.69
2023-02-25T15:21:37.285Z,9.47
2023-02-25T15:24:11.500Z,9.59
2023-02-25T15:26:44.193Z,9.58
2023-02-25T15:29:48.233Z,9.48
2023-02-25T15:32:24.288Z,9.59
2023-02-25T15:34:57.959Z,9.55
2023-02-25T15:37:32.300Z,9.57
2023-02-25T15:40:04.440Z,9.48
2023-02-25T15:42:46.758Z,9.51
2023-02-25T15:45:38.126Z,9.50
2023-02-25T15:48:30.775Z,9.65
2023-02-25T15:51:00.532Z,9.78
2023-02-25T15:53:40.493Z,9.78
2023-02-25T15:56:41.092Z,9.85
2023-02-25T15:59:08.812Z,9.91
2023-02-25T16:01:42.777Z,9.92
2023-02-25T16:04:56.792Z,9.51
2023-02-25T16:07:32.334Z,9.70
2023-02-25T16:10:03.917Z,9.82
2023-02-25T16:12:33.062Z,9.78
2023-02-25T16:15:01.459Z,9.73
2023-02-25T16:17:33.959Z,9.67
2023-02-25T16:20:17.956Z,9.60
2023-02-25T16:22:48.392Z,9.75
2023-02-25T16:25:19.905Z,9.76
2023-02-25T16:27:59.801Z,9.66
2023-02-25T16:30:37.203Z,9.58
2023-02-25T16:33:13.818Z,9.74
2023-02-25T16:35:50.367Z,9.84
2023-02-25T16:38:28.801Z,9.83
2023-02-25T16:40:59.820Z,9.80
2023-02-25T16:43:33.554Z,9.84
2023-02-25T16:46:03.830Z,9.89
2023-02-25T16:48:35.179Z,9.82
2023-02-25T16:51:11.374Z,9.71
2023-02-25T16:53:44.788Z,9.74
2023-02-25T16:56:20.056Z,9.68
2023-02-25T16:59:15.735Z,9.57
2023-02-25T17:01:48.776Z,9.61
2023-02-25T17:04:19.878Z,9.41
2023-02-25T17:07:07.808Z,9.50
2023-02-25T17:09:36.185Z,9.45
2023-02-25T17:12:04.872Z,9.49
2023-02-25T17:14:33.987Z,9.34
2023-02-25T17:17:02.112Z,9.26
2023-02-25T17:19:30.097Z,9.25
2023-02-25T17:22:00.841Z,9.22
2023-02-25T17:24:32.414Z,9.22
2023-02-25T17:27:01.701Z,9.16
2023-02-25T17:29:37.086Z,9.17
2023-02-25T17:32:14.369Z,8.97
2023-02-25T17:34:43.375Z,9.03
2023-02-25T17:37:13.529Z,8.70
2023-02-25T17:39:44.233Z,8.75
2023-02-25T17:42:28.830Z,8.63
2023-02-25T17:44:58.828Z,8.79
2023-02-25T17:47:28.875Z,8.81
2023-02-25T17:49:57.659Z,8.74
2023-02-25T17:52:28.397Z,8.84
2023-02-25T17:54:59.529Z,8.79
2023-02-25T17:57:30.462Z,8.80
2023-02-25T18:00:04.231Z,8.78
2023-02-25T18:02:38.610Z,8.85
2023-02-25T18:05:26.972Z,8.88
2023-02-25T18:08:19.284Z,8.73
2023-02-25T18:10:59.004Z,8.82
2023-02-25T18:13:34.236Z,8.69
2023-02-25T18:16:31.889Z,8.64
2023-02-25T18:19:01.666Z,8.70
2023-02-25T18:21:29.809Z,8.70
2023-02-25T18:23:58.184Z,8.65
2023-02-25T18:26:27.475Z,8.57
2023-02-25T18:28:58.450Z,8.51
2023-02-25T18:31:27.944Z,8.54
2023-02-25T18:33:55.607Z,8.48
2023-02-25T18:36:26.551Z,8.43
2023-02-25T18:38:56.848Z,8.42
2023-02-25T18:41:24.568Z,8.37
2023-02-25T18:43:54.510Z,8.40
2023-02-25T18:46:23.023Z,8.36
2023-02-25T18:48:52.138Z,8.32
2023-02-25T18:51:19.857Z,8.37
2023-02-25T18:53:48.328Z,8.36
2023-02-25T18:56:17.826Z,8.15
2023-02-25T18:58:45.646Z,8.20
2023-02-25T19:01:21.760Z,8.17
2023-02-25T19:03:49.584Z,8.18
2023-02-25T19:06:18.623Z,8.17
2023-02-25T19:08:46.873Z,8.17
2023-02-25T19:11:19.077Z,8.20
2023-02-25T19:13:47.339Z,8.21
2023-02-25T19:16:16.759Z,8.15
2023-02-25T19:18:44.802Z,8.14
2023-02-25T19:21:15.490Z,8.22
2023-02-25T19:23:44.623Z,8.19
2023-02-25T19:26:12.873Z,8.14
2023-02-25T19:28:40.856Z,8.13
2023-02-25T19:31:09.916Z,8.16
2023-02-25T19:33:37.648Z,8.18
2023-02-25T19:36:08.980Z,8.09
2023-02-25T19:38:36.648Z,8.07
2023-02-25T19:41:06.722Z,8.11
2023-02-25T19:43:35.352Z,8.06
2023-02-25T19:46:04.996Z,8.03
2023-02-25T19:48:32.503Z,8.09
2023-02-25T19:51:00.629Z,8.06
2023-02-25T19:53:28.385Z,7.96
2023-02-25T19:55:57.379Z,7.86
2023-02-25T19:58:26.924Z,7.86
2023-02-25T20:00:55.514Z,7.78
2023-02-25T20:03:23.290Z,7.66
2023-02-25T20:05:52.677Z,7.71
2023-02-25T20:08:20.640Z,7.67
2023-02-25T20:10:48.266Z,7.58
2023-02-25T20:13:16.349Z,7.61
2023-02-25T20:15:45.340Z,7.64
2023-02-25T20:18:12.983Z,7.55
2023-02-25T20:20:43.065Z,7.62
2023-02-25T20:23:11.549Z,7.61
2023-02-25T20:25:39.236Z,7.57
2023-02-25T20:28:07.348Z,7.59
2023-02-25T20:30:35.087Z,7.55
2023-02-25T20:33:04.655Z,7.56
2023-02-25T20:35:33.671Z,7.54
2023-02-25T20:38:16.736Z,7.54
2023-02-25T20:40:45.069Z,7.49
2023-02-25T20:43:13.021Z,7.45
2023-02-25T20:45:41.138Z,7.48
2023-02-25T20:48:21.985Z,7.45
2023-02-25T20:50:50.022Z,7.35
2023-02-25T20:53:18.218Z,7.30
2023-02-25T20:55:46.396Z,7.31
2023-02-25T20:58:14.071Z,7.26
2023-02-25T21:00:42.014Z,7.22
2023-02-25T21:03:11.164Z,7.21
2023-02-25T21:05:38.845Z,7.22
2023-02-25T21:08:07.089Z,7.10
2023-02-25T21:10:34.841Z,7.04
2023-02-25T21:13:02.559Z,7.04
2023-02-25T21:15:30.349Z,7.09
2023-02-25T21:17:58.525Z,7.06
2023-02-25T21:20:27.673Z,7.01
2023-02-25T21:22:55.347Z,7.00
2023-02-25T21:25:23.035Z,6.95
2023-02-25T21:27:50.746Z,6.97
2023-02-25T21:30:19.063Z,6.90
2023-02-25T21:32:46.921Z,6.88
2023-02-25T21:35:14.672Z,6.88
2023-02-25T21:37:43.744Z,6.91
2023-02-25T21:40:13.547Z,6.92
2023-02-25T21:42:41.216Z,6.87
2023-02-25T21:45:10.905Z,6.85
2023-02-25T21:47:38.586Z,6.89
2023-02-25T21:50:07.427Z,6.85
2023-02-25T21:52:35.121Z,6.83
2023-02-25T21:55:04.684Z,6.81
2023-02-25T21:57:32.389Z,6.82
2023-02-25T22:00:00.442Z,6.82
2023-02-25T22:02:29.149Z,6.79
2023-02-25T22:04:57.390Z,6.77
2023-02-25T22:07:25.153Z,6.77
2023-02-25T22:09:53.104Z,6.74
2023-02-25T22:12:22.125Z,6.74
2023-02-25T22:14:49.764Z,6.75
2023-02-25T22:17:17.961Z,6.74
2023-02-25T22:19:45.682Z,6.74
2023-02-25T22:22:14.945Z,6.75
2023-02-25T22:24:43.109Z,6.73
2023-02-25T22:27:10.751Z,6.79
2023-02-25T22:29:39.762Z,6.79
2023-02-25T22:32:08.183Z,6.78
2023-02-25T22:34:35.924Z,6.80
2023-02-25T22:37:03.601Z,6.79
2023-02-25T22:39:31.710Z,6.79
2023-02-25T22:41:59.507Z,6.80
2023-02-25T22:44:27.254Z,6.81
2023-02-25T22:46:56.790Z,6.78
2023-02-25T22:49:24.390Z,6.85
2023-02-25T22:51:52.073Z,6.81
2023-02-25T22:54:21.598Z,6.76
2023-02-25T22:56:50.609Z,6.72
2023-02-25T22:59:18.526Z,6.72
2023-02-25T23:01:46.879Z,6.70
2023-02-25T23:04:16.254Z,6.69
2023-02-25T23:06:45.426Z,6.65
2023-02-25T23:09:14.448Z,6.64
2023-02-25T23:11:43.370Z,6.60
2023-02-25T23:14:11.120Z,6.54
2023-02-25T23:16:41.287Z,6.55
2023-02-25T23:19:10.893Z,6.52
2023-02-25T23:21:40.065Z,6.54
2023-02-25T23:24:09.974Z,6.54
2023-02-25T23:26:40.415Z,6.54
2023-02-25T23:29:09.828Z,6.53
2023-02-25T23:31:39.889Z,6.54
2023-02-25T23:34:09.763Z,6.54
2023-02-25T23:36:37.698Z,6.59
2023-02-25T23:39:08.842Z,6.60
2023-02-25T23:41:38.202Z,6.58
2023-02-25T23:44:08.717Z,6.56
2023-02-25T23:46:37.182Z,6.43
2023-02-25T23:49:07.764Z,6.52
2023-02-25T23:51:36.767Z,6.48
2023-02-25T23:54:08.088Z,6.45
2023-02-25T23:56:36.845Z,6.42
2023-02-25T23:59:04.571Z,6.40
